Observation data for White River Lake on 01/20/2019      Previous  Date  Next       Current Mesonet Observations  Soil Data  Daily Summary Page  Observations in Plain Language
KWVS 200600Z 07003KT M01/M06 A3031 RMK A01 T10051064  RH  064%=      5-min Rain = 0
KWVS 200605Z 10002KT M01/M06 A3032 RMK A01 T10111063  RH  068%=      5-min Rain = 0
KWVS 200610Z 11003KT M01/M06 A3031 RMK A01 T10061063  RH  065%=      5-min Rain = 0
KWVS 200615Z 13004KT M00/M07 A303 RMK A01 T10041066  RH  063%=      5-min Rain = 0
KWVS 200620Z 14004KT M01/M07 A303 RMK A01 T10051066  RH  064%=      5-min Rain = 0
KWVS 200625Z 14005KT M01/M07 A3031 RMK A01 T10061066  RH  064%=      5-min Rain = 0
KWVS 200630Z 13003KT M01/M07 A3032 RMK A01 T10051065  RH  064%=      5-min Rain = 0
KWVS 200635Z 12005KT M01/M07 A3031 RMK A01 T10061066  RH  064%=      5-min Rain = 0
KWVS 200640Z 13005KT M01/M07 A3031 RMK A01 T10091066  RH  065%=      5-min Rain = 0
KWVS 200645Z 13006KT M01/M07 A3031 RMK A01 T10091065  RH  066%=      5-min Rain = 0
KWVS 200650Z 13006KT M01/M07 A3031 RMK A01 T10111065  RH  067%=      5-min Rain = 0
KWVS 200655Z 13005KT M01/M07 A3031 RMK A01 T10111065  RH  067%=      5-min Rain = 0
KWVS 200700Z 13005KT M01/M07 A3031 RMK A01 T10111065  RH  067%=      5-min Rain = 0
KWVS 200705Z 13004KT M01/M07 A3031 RMK A01 T10111066  RH  066%=      5-min Rain = 0
KWVS 200710Z 14004KT M01/M07 A3031 RMK A01 T10101065  RH  066%=      5-min Rain = 0
KWVS 200715Z 15005KT M01/M07 A303 RMK A01 T10121066  RH  067%=      5-min Rain = 0
KWVS 200720Z 16004KT M01/M07 A303 RMK A01 T10141065  RH  068%=      5-min Rain = 0
KWVS 200725Z 16003KT M02/M06 A3031 RMK A01 T10151064  RH  069%=      5-min Rain = 0
KWVS 200730Z 17003KT M01/M06 A3031 RMK A01 T10141063  RH  069%=      5-min Rain = 0
KWVS 200735Z 16003KT M01/M06 A303 RMK A01 T10141063  RH  070%=      5-min Rain = 0
KWVS 200740Z 15004KT M01/M06 A3031 RMK A01 T10141062  RH  070%=      5-min Rain = 0
KWVS 200745Z 14006KT M02/M07 A3031 RMK A01 T10171065  RH  070%=      5-min Rain = 0
KWVS 200750Z 14005KT M02/M07 A303 RMK A01 T10181066  RH  070%=      5-min Rain = 0
KWVS 200755Z 14005KT M02/M07 A3031 RMK A01 T10191068  RH  069%=      5-min Rain = 0
KWVS 200800Z 16004KT M02/M07 A3031 RMK A01 T10201068  RH  070%=      5-min Rain = 0
KWVS 200805Z 16005KT M02/M07 A3031 RMK A01 T10221068  RH  071%=      5-min Rain = 0
KWVS 200810Z 15004KT M02/M07 A3031 RMK A01 T10221068  RH  071%=      5-min Rain = 0
KWVS 200815Z 13004KT M02/M07 A303 RMK A01 T10191068  RH  069%=      5-min Rain = 0
KWVS 200820Z 15005KT M02/M07 A303 RMK A01 T10201071  RH  068%=      5-min Rain = 0
KWVS 200825Z 14005KT M02/M07 A303 RMK A01 T10231072  RH  069%=      5-min Rain = 0
KWVS 200830Z 14004KT M02/M07 A303 RMK A01 T10221072  RH  068%=      5-min Rain = 0
KWVS 200835Z 14005KT M02/M07 A303 RMK A01 T10211074  RH  067%=      5-min Rain = 0
KWVS 200840Z 14005KT M02/M07 A303 RMK A01 T10221074  RH  067%=      5-min Rain = 0
KWVS 200845Z 13005KT M02/M07 A303 RMK A01 T10211074  RH  067%=      5-min Rain = 0
KWVS 200850Z 14006KT M02/M07 A303 RMK A01 T10221074  RH  067%=      5-min Rain = 0
KWVS 200855Z 16006KT M02/M07 A303 RMK A01 T10241074  RH  068%=      5-min Rain = 0
KWVS 200900Z 17004KT M03/M07 A303 RMK A01 T10281074  RH  070%=      5-min Rain = 0
KWVS 200905Z 18003KT M03/M07 A303 RMK A01 T10271074  RH  070%=      5-min Rain = 0
KWVS 200910Z 17002KT M03/M07 A303 RMK A01 T10271073  RH  070%=      5-min Rain = 0
KWVS 200915Z 17002KT M03/M07 A3031 RMK A01 T10251073  RH  070%=      5-min Rain = 0
KWVS 200920Z 14003KT M02/M07 A303 RMK A01 T10241072  RH  069%=      5-min Rain = 0
KWVS 200925Z 14003KT M02/M07 A303 RMK A01 T10211072  RH  068%=      5-min Rain = 0
KWVS 200930Z 14003KT M02/M07 A303 RMK A01 T10211072  RH  068%=      5-min Rain = 0
KWVS 200935Z 15004KT M02/M07 A303 RMK A01 T10211072  RH  068%=      5-min Rain = 0
KWVS 200940Z 16004KT M02/M07 A303 RMK A01 T10231073  RH  069%=      5-min Rain = 0
KWVS 200945Z 15003KT M03/M07 A303 RMK A01 T10251072  RH  070%=      5-min Rain = 0
KWVS 200950Z 15003KT M03/M07 A303 RMK A01 T10261072  RH  071%=      5-min Rain = 0
KWVS 200955Z 15004KT M03/M07 A303 RMK A01 T10261071  RH  071%=      5-min Rain = 0
KWVS 201000Z 16004KT M03/M07 A303 RMK A01 T10251072  RH  071%=      5-min Rain = 0
KWVS 201005Z 17004KT M03/M07 A303 RMK A01 T10261072  RH  071%=      5-min Rain = 0
KWVS 201010Z 19004KT M03/M07 A303 RMK A01 T10291074  RH  071%=      5-min Rain = 0
KWVS 201015Z 17004KT M03/M07 A303 RMK A01 T10311074  RH  072%=      5-min Rain = 0
KWVS 201020Z 17004KT M03/M08 A303 RMK A01 T10311075  RH  072%=      5-min Rain = 0
KWVS 201025Z 15004KT M03/M07 A303 RMK A01 T10301074  RH  072%=      5-min Rain = 0
KWVS 201030Z 15003KT M03/M07 A303 RMK A01 T10281074  RH  070%=      5-min Rain = 0
KWVS 201035Z 16004KT M03/M08 A303 RMK A01 T10271075  RH  070%=      5-min Rain = 0
KWVS 201040Z 15004KT M03/M08 A3029 RMK A01 T10271075  RH  069%=      5-min Rain = 0
KWVS 201045Z 15004KT M03/M08 A3029 RMK A01 T10281075  RH  070%=      5-min Rain = 0
KWVS 201050Z 15004KT M03/M08 A3029 RMK A01 T10281076  RH  069%=      5-min Rain = 0
KWVS 201055Z 16003KT M03/M08 A3029 RMK A01 T10281076  RH  069%=      5-min Rain = 0
KWVS 201100Z 15003KT M03/M08 A3029 RMK A01 T10281077  RH  069%=      5-min Rain = 0
KWVS 201105Z 15003KT M03/M08 A3029 RMK A01 T10281077  RH  069%=      5-min Rain = 0
KWVS 201110Z 15004KT M03/M08 A3029 RMK A01 T10281077  RH  069%=      5-min Rain = 0
KWVS 201115Z 15004KT M03/M08 A3029 RMK A01 T10281079  RH  068%=      5-min Rain = 0
KWVS 201120Z 17004KT M03/M08 A3028 RMK A01 T10281079  RH  068%=      5-min Rain = 0
KWVS 201125Z 18004KT M03/M08 A3028 RMK A01 T10291079  RH  068%=      5-min Rain = 0
KWVS 201130Z 18005KT M03/M08 A3027 RMK A01 T10331081  RH  069%=      5-min Rain = 0
KWVS 201135Z 18005KT M04/M08 A3027 RMK A01 T10351082  RH  070%=      5-min Rain = 0
KWVS 201140Z 18005KT M04/M08 A3027 RMK A01 T10361082  RH  070%=      5-min Rain = 0
KWVS 201145Z 18004KT M04/M08 A3027 RMK A01 T10351082  RH  070%=      5-min Rain = 0
KWVS 201150Z 18004KT M03/M08 A3027 RMK A01 T10341083  RH  069%=      5-min Rain = 0
KWVS 201155Z 18004KT M03/M08 A3027 RMK A01 T10341083  RH  069%=      5-min Rain = 0
KWVS 201200Z 18004KT M03/M08 A3026 RMK A01 T10331083  RH  068%=      5-min Rain = 0
KWVS 201205Z 18004KT M03/M08 A3026 RMK A01 T10321082  RH  068%=      5-min Rain = 0
KWVS 201210Z 18004KT M03/M08 A3026 RMK A01 T10321082  RH  068%=      5-min Rain = 0
KWVS 201215Z 19004KT M03/M08 A3027 RMK A01 T10311082  RH  068%=      5-min Rain = 0
KWVS 201220Z 19005KT M03/M08 A3026 RMK A01 T10311082  RH  068%=      5-min Rain = 0
KWVS 201225Z 18005KT M03/M08 A3026 RMK A01 T10331082  RH  069%=      5-min Rain = 0
KWVS 201230Z 17005KT M03/M08 A3026 RMK A01 T10341081  RH  070%=      5-min Rain = 0
KWVS 201235Z 17005KT M03/M08 A3026 RMK A01 T10341081  RH  070%=      5-min Rain = 0
KWVS 201240Z 17006KT M04/M08 A3026 RMK A01 T10351081  RH  071%=      5-min Rain = 0
KWVS 201245Z 17006KT M04/M08 A3026 RMK A01 T10371081  RH  071%=      5-min Rain = 0
KWVS 201250Z 17006KT M04/M08 A3026 RMK A01 T10381081  RH  072%=      5-min Rain = 0
KWVS 201255Z 17006KT M04/M08 A3026 RMK A01 T10381080  RH  072%=      5-min Rain = 0
KWVS 201300Z 17005KT M04/M08 A3026 RMK A01 T10391080  RH  073%=      5-min Rain = 0
KWVS 201305Z 17005KT M04/M08 A3026 RMK A01 T10391080  RH  073%=      5-min Rain = 0
KWVS 201310Z 17006KT M04/M08 A3026 RMK A01 T10381081  RH  072%=      5-min Rain = 0
KWVS 201315Z 18006KT M04/M08 A3026 RMK A01 T10391081  RH  073%=      5-min Rain = 0
KWVS 201320Z 18005KT M04/M08 A3026 RMK A01 T10391080  RH  073%=      5-min Rain = 0
KWVS 201325Z 18005KT M04/M08 A3026 RMK A01 T10391081  RH  073%=      5-min Rain = 0
KWVS 201330Z 18005KT M04/M08 A3026 RMK A01 T10401081  RH  073%=      5-min Rain = 0
KWVS 201335Z 17004KT M04/M08 A3026 RMK A01 T10391080  RH  073%=      5-min Rain = 0
KWVS 201340Z 17004KT M04/M08 A3026 RMK A01 T10371080  RH  072%=      5-min Rain = 0
KWVS 201345Z 17004KT M04/M08 A3026 RMK A01 T10361080  RH  072%=      5-min Rain = 0
KWVS 201350Z 17004KT M04/M08 A3026 RMK A01 T10351079  RH  072%=      5-min Rain = 0
KWVS 201355Z 18004KT M04/M08 A3026 RMK A01 T10351079  RH  071%=      5-min Rain = 0
KWVS 201400Z 18004KT M04/M08 A3026 RMK A01 T10351079  RH  071%=      5-min Rain = 0
KWVS 201405Z 18004KT M03/M08 A3027 RMK A01 T10341079  RH  071%=      5-min Rain = 0
KWVS 201410Z 18004KT M03/M08 A3027 RMK A01 T10341078  RH  071%=      5-min Rain = 0
KWVS 201415Z 17005KT M03/M08 A3027 RMK A01 T10331078  RH  071%=      5-min Rain = 0
KWVS 201420Z 18005KT M03/M08 A3027 RMK A01 T10331077  RH  071%=      5-min Rain = 0
KWVS 201425Z 18005KT M03/M08 A3027 RMK A01 T10331077  RH  071%=      5-min Rain = 0
KWVS 201430Z 17004KT M03/M08 A3027 RMK A01 T10311077  RH  071%=      5-min Rain = 0
KWVS 201435Z 16004KT M03/M08 A3027 RMK A01 T10301077  RH  070%=      5-min Rain = 0
KWVS 201440Z 17004KT M03/M08 A3027 RMK A01 T10281077  RH  069%=      5-min Rain = 0
KWVS 201445Z 18004KT M03/M07 A3027 RMK A01 T10251073  RH  070%=      5-min Rain = 0
KWVS 201450Z 19004KT M02/M07 A3028 RMK A01 T10221068  RH  071%=      5-min Rain = 0
KWVS 201455Z 20005KT M02/M07 A3028 RMK A01 T10181068  RH  069%=      5-min Rain = 0
KWVS 201500Z 19006KT M01/M07 A3027 RMK A01 T10141067  RH  067%=      5-min Rain = 0
KWVS 201505Z 19005KT M01/M07 A3027 RMK A01 T10111065  RH  066%=      5-min Rain = 0
KWVS 201510Z 19005KT M01/M06 A3027 RMK A01 T10071063  RH  066%=      5-min Rain = 0
KWVS 201515Z 19007KT M00/M06 A3026 RMK A01 T10031063  RH  064%=      5-min Rain = 0
KWVS 201520Z 19007KT 00/M06 A3027 RMK A01 T00021063  RH  062%=      5-min Rain = 0
KWVS 201525Z 18007KT 01/M06 A3027 RMK A01 T00071062  RH  060%=      5-min Rain = 0
KWVS 201530Z 18008KT 01/M06 A3027 RMK A01 T00101061  RH  059%=      5-min Rain = 0
KWVS 201535Z 18009KT 01/M06 A3026 RMK A01 T00121061  RH  058%=      5-min Rain = 0
KWVS 201540Z 18009KT 01/M06 A3026 RMK A01 T00121062  RH  058%=      5-min Rain = 0
KWVS 201545Z 18008KT 02/M06 A3026 RMK A01 T00161059  RH  058%=      5-min Rain = 0
KWVS 201550Z 19009KT 02/M06 A3026 RMK A01 T00191058  RH  057%=      5-min Rain = 0
KWVS 201555Z 20009KT 02/M06 A3026 RMK A01 T00191058  RH  057%=      5-min Rain = 0
KWVS 201600Z 20009KT 02/M06 A3026 RMK A01 T00221057  RH  056%=      5-min Rain = 0
KWVS 201605Z 19010KT 02/M06 A3026 RMK A01 T00221060  RH  055%=      5-min Rain = 0
KWVS 201610Z 19011KT 02/M06 A3026 RMK A01 T00221061  RH  055%=      5-min Rain = 0
KWVS 201615Z 18009KT 03/M06 A3026 RMK A01 T00291058  RH  053%=      5-min Rain = 0
KWVS 201620Z 19011KT 03/M06 A3025 RMK A01 T00291058  RH  053%=      5-min Rain = 0
KWVS 201625Z 19011KT 03/M06 A3025 RMK A01 T00311056  RH  053%=      5-min Rain = 0
KWVS 201630Z 18010KT 03/M06 A3025 RMK A01 T00341055  RH  052%=      5-min Rain = 0
KWVS 201635Z 18012KT 04/M05 A3025 RMK A01 T00361054  RH  052%=      5-min Rain = 0
KWVS 201640Z 18011KT 04/M05 A3025 RMK A01 T00351054  RH  052%=      5-min Rain = 0
KWVS 201645Z 18011KT 04/M05 A3025 RMK A01 T00391052  RH  051%=      5-min Rain = 0
KWVS 201650Z 18012KT 04/M05 A3024 RMK A01 T00411052  RH  051%=      5-min Rain = 0
KWVS 201655Z 19010KT 04/M05 A3024 RMK A01 T00441050  RH  050%=      5-min Rain = 0
KWVS 201700Z 18009KT 05/M05 A3024 RMK A01 T00481049  RH  049%=      5-min Rain = 0
KWVS 201705Z 18010KT 05/M05 A3023 RMK A01 T00521048  RH  049%=      5-min Rain = 0
KWVS 201710Z 19011KT 05/M05 A3023 RMK A01 T00541048  RH  048%=      5-min Rain = 0
KWVS 201715Z 19011KT 06/M05 A3023 RMK A01 T00581045  RH  047%=      5-min Rain = 0
KWVS 201720Z 18011KT 06/M05 A3023 RMK A01 T00611045  RH  047%=      5-min Rain = 0
KWVS 201725Z 20011KT 07/M04 A3023 RMK A01 T00661043  RH  046%=      5-min Rain = 0
KWVS 201730Z 19013G18KT 07/M04 A3023 RMK A01 T00691042  RH  045%=      5-min Rain = 0
KWVS 201735Z 19014G19KT 07/M04 A3023 RMK A01 T00701042  RH  045%=      5-min Rain = 0
KWVS 201740Z 19011KT 08/M04 A3023 RMK A01 T00751040  RH  044%=      5-min Rain = 0
KWVS 201745Z 19012G17KT 08/M04 A3022 RMK A01 T00761040  RH  044%=      5-min Rain = 0
KWVS 201750Z 19011G16KT 08/M04 A3022 RMK A01 T00801040  RH  043%=      5-min Rain = 0
KWVS 201755Z 19013KT 08/M04 A3022 RMK A01 T00811040  RH  042%=      5-min Rain = 0
KWVS 201800Z 19013KT 09/M04 A3022 RMK A01 T00861038  RH  042%=      5-min Rain = 0
KWVS 201805Z 19013KT 09/M04 A3022 RMK A01 T00881038  RH  041%=      5-min Rain = 0
KWVS 201810Z 19013KT 09/M04 A3021 RMK A01 T00921038  RH  040%=      5-min Rain = 0
KWVS 201815Z 20012KT 10/M04 A302 RMK A01 T01011036  RH  038%=      5-min Rain = 0
KWVS 201820Z 20013G19KT 10/M04 A302 RMK A01 T01021037  RH  038%=      5-min Rain = 0
KWVS 201825Z 20013KT 10/M04 A3019 RMK A01 T01001037  RH  038%=      5-min Rain = 0
KWVS 201830Z 19012KT 10/M04 A3019 RMK A01 T01031036  RH  038%=      5-min Rain = 0
KWVS 201835Z 20010G16KT 11/M04 A3019 RMK A01 T01081035  RH  037%=      5-min Rain = 0
KWVS 201840Z 20010G15KT 11/M03 A3018 RMK A01 T01131033  RH  036%=      5-min Rain = 0
KWVS 201845Z 20011KT 11/M04 A3018 RMK A01 T01141035  RH  035%=      5-min Rain = 0
KWVS 201850Z 20010KT 12/M03 A3018 RMK A01 T01161032  RH  036%=      5-min Rain = 0
KWVS 201855Z 18011KT 12/M03 A3017 RMK A01 T01181033  RH  035%=      5-min Rain = 0
KWVS 201900Z 19012KT 12/M03 A3017 RMK A01 T01241032  RH  034%=      5-min Rain = 0
KWVS 201905Z 20012KT 13/M03 A3016 RMK A01 T01251033  RH  033%=      5-min Rain = 0
KWVS 201910Z 19011KT 13/M03 A3016 RMK A01 T01251032  RH  033%=      5-min Rain = 0
KWVS 201915Z 19011KT 14/M03 A3016 RMK A01 T01351031  RH  032%=      5-min Rain = 0
KWVS 201920Z 20010KT 13/M03 A3015 RMK A01 T01331033  RH  032%=      5-min Rain = 0
KWVS 201925Z 21012G21KT 14/M03 A3014 RMK A01 T01391034  RH  030%=      5-min Rain = 0
KWVS 201930Z 19011KT 14/M03 A3014 RMK A01 T01371034  RH  031%=      5-min Rain = 0
KWVS 201935Z 19012KT 14/M03 A3014 RMK A01 T01361034  RH  031%=      5-min Rain = 0
KWVS 201940Z 18010KT 14/M03 A3014 RMK A01 T01351033  RH  031%=      5-min Rain = 0
KWVS 201945Z 19012G17KT 14/M03 A3013 RMK A01 T01421034  RH  030%=      5-min Rain = 0
KWVS 201950Z 20013KT 14/M04 A3013 RMK A01 T01391036  RH  030%=      5-min Rain = 0
KWVS 201955Z 18011G18KT 15/M04 A3013 RMK A01 T01461037  RH  028%=      5-min Rain = 0
KWVS 202000Z 18014G19KT 15/M04 A3012 RMK A01 T01521041  RH  026%=      5-min Rain = 0
KWVS 202005Z 19015KT 15/M04 A3011 RMK A01 T01521044  RH  026%=      5-min Rain = 0
KWVS 202010Z 19014G19KT 15/M05 A3011 RMK A01 T01521045  RH  025%=      5-min Rain = 0
KWVS 202015Z 20013G20KT 15/M05 A3011 RMK A01 T01461047  RH  026%=      5-min Rain = 0
KWVS 202020Z 20013KT 15/M05 A3011 RMK A01 T01461046  RH  026%=      5-min Rain = 0
KWVS 202025Z 19012KT 15/M04 A3011 RMK A01 T01471043  RH  027%=      5-min Rain = 0
KWVS 202030Z 19012KT 15/M04 A301 RMK A01 T01461040  RH  027%=      5-min Rain = 0
KWVS 202035Z 19012KT 15/M04 A301 RMK A01 T01481038  RH  027%=      5-min Rain = 0
KWVS 202040Z 18011KT 15/M04 A301 RMK A01 T01491040  RH  027%=      5-min Rain = 0
KWVS 202045Z 18012G17KT 15/M04 A301 RMK A01 T01451040  RH  028%=      5-min Rain = 0
KWVS 202050Z 18011KT 14/M04 A301 RMK A01 T01431040  RH  028%=      5-min Rain = 0
KWVS 202055Z 18012G17KT 15/M04 A301 RMK A01 T01471041  RH  027%=      5-min Rain = 0
KWVS 202100Z 19013KT 15/M05 A301 RMK A01 T01471047  RH  026%=      5-min Rain = 0
KWVS 202105Z 19013KT 15/M05 A301 RMK A01 T01481047  RH  026%=      5-min Rain = 0
KWVS 202110Z 19012KT 15/M05 A3009 RMK A01 T01511045  RH  026%=      5-min Rain = 0
KWVS 202115Z 19012KT 16/M04 A3009 RMK A01 T01571043  RH  025%=      5-min Rain = 0
KWVS 202120Z 19013KT 16/M05 A3008 RMK A01 T01551048  RH  024%=      5-min Rain = 0
KWVS 202125Z 18013KT 16/M05 A3008 RMK A01 T01561047  RH  024%=      5-min Rain = 0
KWVS 202130Z 19012G17KT 16/M05 A3008 RMK A01 T01621045  RH  024%=      5-min Rain = 0
KWVS 202135Z 18012KT 17/M04 A3008 RMK A01 T01711043  RH  023%=      5-min Rain = 0
KWVS 202140Z 20013KT 16/M05 A3008 RMK A01 T01641047  RH  023%=      5-min Rain = 0
KWVS 202145Z 20013KT 16/M05 A3008 RMK A01 T01631047  RH  023%=      5-min Rain = 0
KWVS 202150Z 20011G16KT 17/M05 A3008 RMK A01 T01651045  RH  024%=      5-min Rain = 0
KWVS 202155Z 20011KT 17/M05 A3007 RMK A01 T01651045  RH  024%=      5-min Rain = 0
KWVS 202200Z 18013KT 17/M05 A3007 RMK A01 T01661045  RH  023%=      5-min Rain = 0
KWVS 202205Z 19013KT 16/M05 A3007 RMK A01 T01641046  RH  023%=      5-min Rain = 0
KWVS 202210Z 19013G18KT 17/M05 A3007 RMK A01 T01651045  RH  023%=      5-min Rain = 0
KWVS 202215Z 19012G17KT 17/M05 A3007 RMK A01 T01661046  RH  023%=      5-min Rain = 0
KWVS 202220Z 19013G18KT 17/M05 A3007 RMK A01 T01681047  RH  023%=      5-min Rain = 0
KWVS 202225Z 19012G17KT 17/M05 A3007 RMK A01 T01691045  RH  023%=      5-min Rain = 0
KWVS 202230Z 19013KT 17/M05 A3006 RMK A01 T01681046  RH  023%=      5-min Rain = 0
KWVS 202235Z 18013KT 17/M05 A3007 RMK A01 T01681046  RH  023%=      5-min Rain = 0
KWVS 202240Z 19013KT 17/M05 A3006 RMK A01 T01681046  RH  023%=      5-min Rain = 0
KWVS 202245Z 18011KT 17/M04 A3006 RMK A01 T01711044  RH  023%=      5-min Rain = 0
KWVS 202250Z 18012G17KT 17/M05 A3006 RMK A01 T01691045  RH  023%=      5-min Rain = 0
KWVS 202255Z 18012G18KT 17/M04 A3006 RMK A01 T01681044  RH  023%=      5-min Rain = 0
KWVS 202300Z 18013KT 17/M04 A3006 RMK A01 T01661043  RH  024%=      5-min Rain = 0
KWVS 202305Z 18010KT 17/M04 A3006 RMK A01 T01681040  RH  024%=      5-min Rain = 0
KWVS 202310Z 18010KT 17/M04 A3006 RMK A01 T01681040  RH  024%=      5-min Rain = 0
KWVS 202315Z 18011KT 17/M04 A3006 RMK A01 T01661040  RH  024%=      5-min Rain = 0
KWVS 202320Z 18010KT 16/M04 A3006 RMK A01 T01611039  RH  025%=      5-min Rain = 0
KWVS 202325Z 17009KT 16/M04 A3006 RMK A01 T01581038  RH  026%=      5-min Rain = 0
KWVS 202330Z 17010KT 16/M04 A3006 RMK A01 T01551038  RH  026%=      5-min Rain = 0
KWVS 202335Z 18009KT 15/M04 A3006 RMK A01 T01521037  RH  027%=      5-min Rain = 0
KWVS 202340Z 18009KT 15/M04 A3006 RMK A01 T01481038  RH  028%=      5-min Rain = 0
KWVS 202345Z 17009KT 15/M04 A3006 RMK A01 T01451038  RH  028%=      5-min Rain = 0
KWVS 202350Z 17008KT 14/M04 A3006 RMK A01 T01421038  RH  029%=      5-min Rain = 0
KWVS 202355Z 17008KT 14/M04 A3006 RMK A01 T01381037  RH  030%=      5-min Rain = 0
KWVS 210000Z 16008KT 13/M04 A3005 RMK A01 T01331037  RH  031%=      5-min Rain = 0
KWVS 210005Z 16008KT 13/M04 A3005 RMK A01 T01261038  RH  032%=      5-min Rain = 0
KWVS 210010Z 16008KT 12/M04 A3005 RMK A01 T01231038  RH  032%=      5-min Rain = 0
KWVS 210015Z 16008KT 12/M04 A3005 RMK A01 T01211039  RH  033%=      5-min Rain = 0
KWVS 210020Z 16008KT 12/M04 A3005 RMK A01 T01181039  RH  033%=      5-min Rain = 0
KWVS 210025Z 16008KT 12/M04 A3005 RMK A01 T01151040  RH  034%=      5-min Rain = 0
KWVS 210030Z 16008KT 11/M04 A3005 RMK A01 T01131040  RH  034%=      5-min Rain = 0
KWVS 210035Z 16009KT 11/M04 A3005 RMK A01 T01111041  RH  034%=      5-min Rain = 0
KWVS 210040Z 16008KT 11/M04 A3005 RMK A01 T01111041  RH  034%=      5-min Rain = 0
KWVS 210045Z 16008KT 11/M04 A3005 RMK A01 T01091041  RH  035%=      5-min Rain = 0
KWVS 210050Z 16008KT 11/M04 A3005 RMK A01 T01081041  RH  035%=      5-min Rain = 0
KWVS 210055Z 16008KT 11/M04 A3005 RMK A01 T01061041  RH  035%=      5-min Rain = 0
KWVS 210100Z 16007KT 11/M04 A3005 RMK A01 T01051042  RH  036%=      5-min Rain = 0
KWVS 210105Z 17008KT 11/M04 A3005 RMK A01 T01051042  RH  036%=      5-min Rain = 0
KWVS 210110Z 16007KT 11/M04 A3005 RMK A01 T01051042  RH  035%=      5-min Rain = 0
KWVS 210115Z 16007KT 10/M04 A3005 RMK A01 T01021042  RH  036%=      5-min Rain = 0
KWVS 210120Z 16007KT 10/M04 A3005 RMK A01 T01001042  RH  037%=      5-min Rain = 0
KWVS 210125Z 17007KT 10/M04 A3005 RMK A01 T00991042  RH  037%=      5-min Rain = 0
KWVS 210130Z 18006KT 10/M04 A3005 RMK A01 T00951043  RH  038%=      5-min Rain = 0
KWVS 210135Z 18006KT 09/M04 A3005 RMK A01 T00921043  RH  038%=      5-min Rain = 0
KWVS 210140Z 18006KT 09/M04 A3005 RMK A01 T00921043  RH  039%=      5-min Rain = 0
KWVS 210145Z 18005KT 09/M04 A3005 RMK A01 T00931043  RH  038%=      5-min Rain = 0
KWVS 210150Z 18006KT 09/M04 A3005 RMK A01 T00941043  RH  038%=      5-min Rain = 0
KWVS 210155Z 19006KT 09/M04 A3005 RMK A01 T00891042  RH  039%=      5-min Rain = 0
KWVS 210200Z 19005KT 09/M04 A3004 RMK A01 T00881043  RH  039%=      5-min Rain = 0
KWVS 210205Z 20005KT 09/M04 A3004 RMK A01 T00881043  RH  039%=      5-min Rain = 0
KWVS 210210Z 19007KT 09/M04 A3004 RMK A01 T00851043  RH  040%=      5-min Rain = 0
KWVS 210215Z 19006KT 09/M04 A3004 RMK A01 T00871042  RH  040%=      5-min Rain = 0
KWVS 210220Z 20007KT 09/M04 A3004 RMK A01 T00881042  RH  040%=      5-min Rain = 0
KWVS 210225Z 20007KT 09/M04 A3004 RMK A01 T00871042  RH  040%=      5-min Rain = 0
KWVS 210230Z 20007KT 08/M04 A3004 RMK A01 T00841043  RH  041%=      5-min Rain = 0
KWVS 210235Z 20007KT 08/M04 A3003 RMK A01 T00821043  RH  041%=      5-min Rain = 0
KWVS 210240Z 19007KT 08/M04 A3003 RMK A01 T00781043  RH  042%=      5-min Rain = 0
KWVS 210245Z 19007KT 08/M04 A3003 RMK A01 T00751043  RH  043%=      5-min Rain = 0
KWVS 210250Z 19007KT 08/M04 A3003 RMK A01 T00781042  RH  042%=      5-min Rain = 0
KWVS 210255Z 19007KT 08/M04 A3003 RMK A01 T00801042  RH  042%=      5-min Rain = 0
KWVS 210300Z 19006KT 08/M04 A3003 RMK A01 T00791042  RH  042%=      5-min Rain = 0
KWVS 210305Z 19006KT 08/M04 A3003 RMK A01 T00771042  RH  043%=      5-min Rain = 0
KWVS 210310Z 19005KT 08/M04 A3003 RMK A01 T00751042  RH  043%=      5-min Rain = 0
KWVS 210315Z 20005KT 08/M04 A3002 RMK A01 T00751042  RH  043%=      5-min Rain = 0
KWVS 210320Z 19004KT 08/M04 A3002 RMK A01 T00761042  RH  043%=      5-min Rain = 0
KWVS 210325Z 19004KT 08/M04 A3002 RMK A01 T00771042  RH  043%=      5-min Rain = 0
KWVS 210330Z 19004KT 08/M04 A3002 RMK A01 T00781042  RH  042%=      5-min Rain = 0
KWVS 210335Z 18006KT 08/M04 A3001 RMK A01 T00801042  RH  042%=      5-min Rain = 0
KWVS 210340Z 18006KT 08/M04 A3001 RMK A01 T00781042  RH  043%=      5-min Rain = 0
KWVS 210345Z 17007KT 07/M04 A3001 RMK A01 T00741042  RH  044%=      5-min Rain = 0
KWVS 210350Z 17007KT 07/M04 A3001 RMK A01 T00721041  RH  045%=      5-min Rain = 0
KWVS 210355Z 17006KT 07/M04 A3001 RMK A01 T00741041  RH  044%=      5-min Rain = 0
KWVS 210400Z 17006KT 08/M04 A30 RMK A01 T00751042  RH  044%=      5-min Rain = 0
KWVS 210405Z 17006KT 08/M04 A30 RMK A01 T00761042  RH  043%=      5-min Rain = 0
KWVS 210410Z 17006KT 08/M04 A30 RMK A01 T00771042  RH  043%=      5-min Rain = 0
KWVS 210415Z 17006KT 08/M04 A30 RMK A01 T00761042  RH  043%=      5-min Rain = 0
KWVS 210420Z 17007KT 08/M04 A30 RMK A01 T00771041  RH  043%=      5-min Rain = 0
KWVS 210425Z 18007KT 08/M04 A30 RMK A01 T00781041  RH  043%=      5-min Rain = 0
KWVS 210430Z 18006KT 08/M04 A30 RMK A01 T00761041  RH  044%=      5-min Rain = 0
KWVS 210435Z 18006KT 07/M04 A30 RMK A01 T00741041  RH  044%=      5-min Rain = 0
KWVS 210440Z 18007KT 07/M04 A30 RMK A01 T00721041  RH  045%=      5-min Rain = 0
KWVS 210445Z 17008KT 08/M04 A3001 RMK A01 T00771040  RH  044%=      5-min Rain = 0
KWVS 210450Z 18008KT 08/M04 A3001 RMK A01 T00771039  RH  044%=      5-min Rain = 0
KWVS 210455Z 18008KT 08/M04 A30 RMK A01 T00771038  RH  044%=      5-min Rain = 0
KWVS 210500Z 18008KT 07/M04 A30 RMK A01 T00711039  RH  046%=      5-min Rain = 0
KWVS 210505Z 18007KT 07/M04 A30 RMK A01 T00691039  RH  046%=      5-min Rain = 0
KWVS 210510Z 18008KT 07/M04 A3001 RMK A01 T00701037  RH  046%=      5-min Rain = 0
KWVS 210515Z 19010KT 07/M03 A3001 RMK A01 T00731034  RH  047%=      5-min Rain = 0
KWVS 210520Z 19009KT 07/M03 A3001 RMK A01 T00731034  RH  047%=      5-min Rain = 0
KWVS 210525Z 19009KT 07/M04 A3001 RMK A01 T00711035  RH  047%=      5-min Rain = 0
KWVS 210530Z 19009KT 07/M04 A3001 RMK A01 T00651036  RH  048%=      5-min Rain = 0
KWVS 210535Z 19009KT 06/M04 A3001 RMK A01 T00591037  RH  050%=      5-min Rain = 0
KWVS 210540Z 19009KT 06/M04 A3001 RMK A01 T00611036  RH  050%=      5-min Rain = 0
KWVS 210545Z 20009KT 06/M04 A3001 RMK A01 T00611036  RH  050%=      5-min Rain = 0
KWVS 210550Z 20008KT 06/M04 A30 RMK A01 T00581037  RH  051%=      5-min Rain = 0
KWVS 210555Z 20007KT 06/M04 A30 RMK A01 T00551037  RH  052%=      5-min Rain = 0

Page generated in 0.0093 seconds.